createdAt,value
2018-01-29T00:00:01.671Z,68.00
2018-01-29T00:02:28.730Z,68.00
2018-01-29T00:04:55.675Z,68.00
2018-01-29T00:07:22.614Z,68.00
2018-01-29T00:09:49.547Z,68.00
2018-01-29T00:12:16.504Z,68.00
2018-01-29T00:14:43.448Z,68.00
2018-01-29T00:17:10.389Z,68.00
2018-01-29T00:19:37.384Z,68.00
2018-01-29T00:22:05.097Z,68.10
2018-01-29T00:24:32.035Z,68.00
2018-01-29T00:26:58.976Z,68.00
2018-01-29T00:29:25.935Z,68.00
2018-01-29T00:31:52.945Z,68.00
2018-01-29T00:34:19.843Z,68.00
2018-01-29T00:36:46.777Z,68.00
2018-01-29T00:39:13.707Z,68.00
2018-01-29T00:41:40.648Z,68.00
2018-01-29T00:44:07.591Z,68.00
2018-01-29T00:46:34.540Z,67.90
2018-01-29T00:49:01.474Z,68.00
2018-01-29T00:51:29.184Z,68.00
2018-01-29T00:53:56.138Z,68.00
2018-01-29T00:56:23.842Z,68.00
2018-01-29T00:58:50.791Z,67.90
2018-01-29T01:01:17.740Z,68.00
2018-01-29T01:03:44.681Z,68.00
2018-01-29T01:06:11.625Z,68.00
2018-01-29T01:08:38.565Z,68.00
2018-01-29T01:11:05.504Z,68.00
2018-01-29T01:13:32.443Z,67.90
2018-01-29T01:15:59.393Z,68.00
2018-01-29T01:18:26.341Z,68.00
2018-01-29T01:20:53.288Z,68.00
2018-01-29T01:23:20.228Z,67.90
2018-01-29T01:25:47.172Z,67.90
2018-01-29T01:28:14.108Z,68.00
2018-01-29T01:30:41.056Z,68.00
2018-01-29T01:33:07.999Z,68.00
2018-01-29T01:35:34.951Z,68.00
2018-01-29T01:38:01.896Z,68.00
2018-01-29T01:40:29.857Z,68.00
2018-01-29T01:42:56.805Z,68.00
2018-01-29T01:45:23.751Z,67.90
2018-01-29T01:47:50.693Z,68.00
2018-01-29T01:50:17.648Z,67.90
2018-01-29T01:52:44.589Z,67.90
2018-01-29T01:55:11.542Z,68.00
2018-01-29T01:57:38.476Z,68.00
2018-01-29T02:00:05.423Z,67.90
2018-01-29T02:02:32.369Z,68.00
2018-01-29T02:04:59.321Z,68.00
2018-01-29T02:07:26.260Z,67.90
2018-01-29T02:09:53.209Z,68.00
2018-01-29T02:12:20.159Z,67.90
2018-01-29T02:14:47.097Z,68.00
2018-01-29T02:17:14.032Z,67.90
2018-01-29T02:19:41.008Z,68.00
2018-01-29T02:22:07.960Z,67.90
2018-01-29T02:24:34.894Z,68.00
2018-01-29T02:27:01.849Z,68.00
2018-01-29T02:29:28.789Z,67.90
2018-01-29T02:31:55.735Z,68.00
2018-01-29T02:34:22.680Z,68.00
2018-01-29T02:36:49.666Z,67.90
2018-01-29T02:39:16.613Z,67.90
2018-01-29T02:41:43.547Z,68.00
2018-01-29T02:44:10.499Z,68.00
2018-01-29T02:46:37.497Z,68.00
2018-01-29T02:49:04.378Z,67.90
2018-01-29T02:51:31.323Z,67.90
2018-01-29T02:53:58.265Z,67.90
2018-01-29T02:56:25.216Z,67.90
2018-01-29T02:58:52.159Z,67.90
2018-01-29T03:01:21.122Z,67.90
2018-01-29T03:03:48.182Z,67.90
2018-01-29T03:06:16.017Z,68.00
2018-01-29T03:08:43.110Z,67.90
2018-01-29T03:11:10.176Z,67.90
2018-01-29T03:13:37.208Z,67.90
2018-01-29T03:16:04.262Z,68.00
2018-01-29T03:18:31.317Z,67.90
2018-01-29T03:20:58.392Z,68.00
2018-01-29T03:23:25.455Z,67.90
2018-01-29T03:25:53.388Z,67.90
2018-01-29T03:28:20.333Z,67.90
2018-01-29T03:30:48.142Z,67.90
2018-01-29T03:33:15.839Z,68.00
2018-01-29T03:35:42.791Z,67.90
2018-01-29T03:38:09.737Z,67.90
2018-01-29T03:40:36.696Z,68.00
2018-01-29T03:43:03.638Z,67.90
2018-01-29T03:45:30.580Z,67.90
2018-01-29T03:47:57.525Z,67.90
2018-01-29T03:50:24.467Z,68.00
2018-01-29T03:52:51.418Z,68.00
2018-01-29T03:55:18.360Z,68.00
2018-01-29T03:57:45.327Z,68.00
2018-01-29T04:00:12.276Z,67.90
2018-01-29T04:02:39.223Z,68.00
2018-01-29T04:05:06.164Z,68.00
2018-01-29T04:07:33.114Z,68.00
2018-01-29T04:10:00.063Z,68.00
2018-01-29T04:12:26.999Z,68.00
2018-01-29T04:14:53.942Z,67.90
2018-01-29T04:17:20.888Z,67.90
2018-01-29T04:19:47.849Z,68.00
2018-01-29T04:22:14.802Z,68.00
2018-01-29T04:24:43.504Z,68.00
2018-01-29T04:27:10.444Z,68.00
2018-01-29T04:29:37.401Z,67.90
2018-01-29T04:32:04.357Z,68.00
2018-01-29T04:34:31.304Z,68.00
2018-01-29T04:36:58.245Z,68.00
2018-01-29T04:39:25.194Z,68.00
2018-01-29T04:41:52.138Z,68.00
2018-01-29T04:44:19.082Z,68.00
2018-01-29T04:46:46.029Z,68.00
2018-01-29T04:49:12.971Z,68.00
2018-01-29T04:51:40.696Z,68.00
2018-01-29T04:54:08.398Z,68.00
2018-01-29T04:56:37.154Z,68.00
2018-01-29T04:59:04.100Z,68.00
2018-01-29T05:01:31.037Z,68.00
2018-01-29T05:03:58.863Z,68.00
2018-01-29T05:06:25.842Z,68.00
2018-01-29T05:08:53.553Z,68.00
2018-01-29T05:11:20.519Z,68.00
2018-01-29T05:13:47.464Z,68.00
2018-01-29T05:16:14.423Z,68.00
2018-01-29T05:18:41.373Z,68.00
2018-01-29T05:21:09.102Z,68.30
2018-01-29T05:23:36.043Z,68.00
2018-01-29T05:26:02.993Z,68.00
2018-01-29T05:28:29.940Z,67.90
2018-01-29T05:30:56.885Z,68.00
2018-01-29T05:33:23.823Z,68.00
2018-01-29T05:36:08.588Z,68.00
2018-01-29T05:38:35.550Z,68.00
2018-01-29T05:41:02.500Z,68.00
2018-01-29T05:43:32.819Z,68.00
2018-01-29T05:46:00.540Z,67.90
2018-01-29T05:48:27.483Z,68.00
2018-01-29T05:50:54.427Z,68.00
2018-01-29T05:53:21.390Z,67.90
2018-01-29T05:55:48.346Z,68.00
2018-01-29T05:58:15.290Z,68.00
2018-01-29T06:00:42.240Z,68.00
2018-01-29T06:03:09.187Z,68.00
2018-01-29T06:05:36.241Z,68.00
2018-01-29T06:08:03.196Z,68.00
2018-01-29T06:10:30.195Z,68.00
2018-01-29T06:12:57.147Z,68.00
2018-01-29T06:15:29.192Z,68.00
2018-01-29T06:17:56.136Z,68.00
2018-01-29T06:20:23.084Z,68.00
2018-01-29T06:22:50.040Z,68.00
2018-01-29T06:25:16.975Z,68.00
2018-01-29T06:27:43.938Z,67.90
2018-01-29T06:30:10.894Z,68.00
2018-01-29T06:32:37.846Z,68.00
2018-01-29T06:35:04.803Z,68.00
2018-01-29T06:37:31.756Z,68.00
2018-01-29T06:39:59.466Z,68.00
2018-01-29T06:42:26.432Z,68.00
2018-01-29T06:44:53.384Z,68.00
2018-01-29T06:47:20.326Z,68.00
2018-01-29T06:49:47.275Z,68.00
2018-01-29T06:52:14.222Z,68.00
2018-01-29T06:54:41.183Z,68.00
2018-01-29T06:57:08.886Z,68.00
2018-01-29T06:59:35.945Z,68.00
2018-01-29T07:02:02.892Z,68.00
2018-01-29T07:04:29.864Z,68.80
2018-01-29T07:06:56.818Z,68.00
2018-01-29T07:09:24.543Z,68.00
2018-01-29T07:11:51.488Z,68.00
2018-01-29T07:14:18.431Z,68.00
2018-01-29T07:16:45.383Z,68.00
2018-01-29T07:19:12.326Z,68.00
2018-01-29T07:21:39.277Z,68.00
2018-01-29T07:24:06.217Z,68.00
2018-01-29T07:26:33.176Z,68.00
2018-01-29T07:29:00.120Z,68.00
2018-01-29T07:31:27.064Z,68.00
2018-01-29T07:33:54.007Z,68.00
2018-01-29T07:36:20.955Z,68.00
2018-01-29T07:38:47.901Z,68.00
2018-01-29T07:41:14.848Z,68.00
2018-01-29T07:43:41.796Z,68.00
2018-01-29T07:46:08.740Z,68.00
2018-01-29T07:48:35.685Z,68.00
2018-01-29T07:51:02.632Z,68.00
2018-01-29T07:53:29.589Z,68.00
2018-01-29T07:55:57.305Z,68.80
2018-01-29T07:58:24.260Z,68.80
2018-01-29T08:00:51.373Z,68.00
2018-01-29T08:03:18.397Z,67.90
2018-01-29T08:05:46.109Z,68.00
2018-01-29T08:08:13.072Z,68.00
2018-01-29T08:10:40.033Z,68.00
2018-01-29T08:13:06.986Z,68.00
2018-01-29T08:15:34.708Z,68.80
2018-01-29T08:18:01.661Z,67.90
2018-01-29T08:20:28.612Z,68.00
2018-01-29T08:22:55.564Z,67.90
2018-01-29T08:25:22.519Z,68.00
2018-01-29T08:27:49.461Z,67.90
2018-01-29T08:30:16.453Z,68.00
2018-01-29T08:32:44.149Z,68.00
2018-01-29T08:35:11.097Z,68.00
2018-01-29T08:37:38.045Z,67.90
2018-01-29T08:40:04.996Z,67.90
2018-01-29T08:42:31.949Z,67.90
2018-01-29T08:44:58.923Z,67.90
2018-01-29T08:47:25.888Z,68.30
2018-01-29T08:49:52.852Z,67.90
2018-01-29T08:52:19.806Z,67.90
2018-01-29T08:54:46.774Z,67.90
2018-01-29T08:57:13.738Z,67.90
2018-01-29T08:59:40.705Z,67.90
2018-01-29T09:02:07.658Z,67.90
2018-01-29T09:04:34.621Z,67.90
2018-01-29T09:07:01.569Z,67.90
2018-01-29T09:09:28.534Z,67.90
2018-01-29T09:11:55.485Z,67.90
2018-01-29T09:14:23.210Z,68.70
2018-01-29T09:16:50.155Z,67.90
2018-01-29T09:19:17.120Z,67.90
2018-01-29T09:21:44.063Z,67.90
2018-01-29T09:24:11.014Z,68.00
2018-01-29T09:26:37.965Z,68.00
2018-01-29T09:29:04.928Z,67.90
2018-01-29T09:31:32.644Z,68.00
2018-01-29T09:33:59.605Z,67.90
2018-01-29T09:36:26.552Z,67.90
2018-01-29T09:38:53.512Z,67.90
2018-01-29T09:41:20.454Z,67.90
2018-01-29T09:43:47.424Z,68.00
2018-01-29T09:46:14.369Z,67.90
2018-01-29T09:48:42.086Z,68.00
2018-01-29T09:51:09.049Z,68.00
2018-01-29T09:53:36.006Z,67.90
2018-01-29T09:56:03.721Z,68.00
2018-01-29T09:58:30.669Z,68.00
2018-01-29T10:00:57.615Z,67.90
2018-01-29T10:03:24.561Z,67.90
2018-01-29T10:05:51.502Z,67.90
2018-01-29T10:08:18.444Z,67.90
2018-01-29T10:10:45.390Z,67.90
2018-01-29T10:13:12.329Z,67.90
2018-01-29T10:15:39.272Z,67.90
2018-01-29T10:18:06.244Z,67.90
2018-01-29T10:20:33.169Z,67.90
2018-01-29T10:23:00.116Z,67.90
2018-01-29T10:25:27.067Z,67.90
2018-01-29T10:27:54.021Z,67.90
2018-01-29T10:30:20.959Z,67.90
2018-01-29T10:32:47.896Z,67.90
2018-01-29T10:35:14.851Z,67.90
2018-01-29T10:37:41.789Z,67.90
2018-01-29T10:40:08.737Z,67.90
2018-01-29T10:42:35.677Z,67.80
2018-01-29T10:45:02.645Z,67.80
2018-01-29T10:47:29.581Z,67.80
2018-01-29T10:49:56.536Z,67.80
2018-01-29T10:52:23.481Z,67.80
2018-01-29T10:54:51.198Z,68.60
2018-01-29T10:57:18.162Z,67.90
2018-01-29T10:59:45.121Z,67.90
2018-01-29T11:02:12.077Z,67.80
2018-01-29T11:04:39.802Z,67.30
2018-01-29T11:07:06.740Z,67.90
2018-01-29T11:09:33.687Z,67.90
2018-01-29T11:12:00.636Z,67.90
2018-01-29T11:14:27.581Z,67.80
2018-01-29T11:16:54.541Z,67.90
2018-01-29T11:19:21.490Z,67.80
2018-01-29T11:21:48.446Z,67.80
2018-01-29T11:24:15.376Z,67.70
2018-01-29T11:26:42.328Z,67.90
2018-01-29T11:29:09.279Z,67.90
2018-01-29T11:31:36.226Z,67.90
2018-01-29T11:34:03.168Z,67.90
2018-01-29T11:36:30.107Z,68.50
2018-01-29T11:38:57.114Z,67.90
2018-01-29T11:41:24.779Z,67.90
2018-01-29T11:43:51.724Z,67.80
2018-01-29T11:46:18.672Z,67.90
2018-01-29T11:48:45.619Z,67.90
2018-01-29T11:51:12.569Z,67.90
2018-01-29T11:53:39.515Z,67.90
2018-01-29T11:56:06.447Z,67.90
2018-01-29T11:58:33.393Z,67.90
2018-01-29T12:01:00.347Z,67.80
2018-01-29T12:03:27.315Z,67.90
2018-01-29T12:05:54.248Z,67.90
2018-01-29T12:08:21.201Z,67.90
2018-01-29T12:10:48.136Z,67.80
2018-01-29T12:13:15.743Z,67.80
2018-01-29T12:15:42.683Z,67.90
2018-01-29T12:18:09.632Z,67.90
2018-01-29T12:20:36.577Z,67.80
2018-01-29T12:23:03.524Z,67.90
2018-01-29T12:25:30.469Z,67.80
2018-01-29T12:27:57.413Z,67.80
2018-01-29T12:30:24.348Z,67.90
2018-01-29T12:32:51.306Z,67.90
2018-01-29T12:35:18.251Z,67.90
2018-01-29T12:37:45.206Z,67.80
2018-01-29T12:40:12.152Z,67.80
2018-01-29T12:42:39.100Z,67.80
2018-01-29T12:45:06.057Z,67.80
2018-01-29T12:47:32.999Z,67.80
2018-01-29T12:49:59.943Z,67.80
2018-01-29T12:52:26.892Z,67.80
2018-01-29T12:54:53.839Z,67.70
2018-01-29T12:57:20.799Z,67.80
2018-01-29T12:59:47.758Z,67.80
2018-01-29T13:02:14.701Z,67.80
2018-01-29T13:04:41.642Z,67.80
2018-01-29T13:07:08.584Z,67.80
2018-01-29T13:09:35.524Z,67.80
2018-01-29T13:12:02.468Z,67.80
2018-01-29T13:14:29.407Z,67.70
2018-01-29T13:16:56.351Z,68.50
2018-01-29T13:19:23.301Z,67.70
2018-01-29T13:21:50.276Z,67.80
2018-01-29T13:24:17.252Z,67.70
2018-01-29T13:26:44.204Z,67.80
2018-01-29T13:29:11.176Z,67.70
2018-01-29T13:31:38.120Z,67.80
2018-01-29T13:34:05.061Z,67.80
2018-01-29T13:36:32.015Z,67.70
2018-01-29T13:38:58.956Z,67.70
2018-01-29T13:41:25.900Z,67.80
2018-01-29T13:43:52.850Z,67.80
2018-01-29T13:46:19.792Z,67.70
2018-01-29T13:48:46.732Z,67.70
2018-01-29T13:51:13.675Z,67.80
2018-01-29T13:53:40.625Z,67.70
2018-01-29T13:56:07.577Z,67.70
2018-01-29T13:58:34.516Z,68.60
2018-01-29T14:01:01.456Z,67.80
2018-01-29T14:03:28.404Z,67.80
2018-01-29T14:05:55.356Z,67.80
2018-01-29T14:08:22.308Z,67.80
2018-01-29T14:10:50.023Z,67.90
2018-01-29T14:13:16.963Z,67.80
2018-01-29T14:15:43.921Z,67.80
2018-01-29T14:18:10.863Z,67.70
2018-01-29T14:20:37.818Z,67.70
2018-01-29T14:23:04.760Z,67.70
2018-01-29T14:25:31.715Z,67.80
2018-01-29T14:27:58.673Z,67.80
2018-01-29T14:30:25.619Z,67.80
2018-01-29T14:32:52.560Z,68.50
2018-01-29T14:35:19.521Z,67.80
2018-01-29T14:37:47.225Z,67.80
2018-01-29T14:40:14.188Z,67.80
2018-01-29T14:42:41.129Z,67.70
2018-01-29T14:45:08.089Z,67.70
2018-01-29T14:47:35.024Z,67.70
2018-01-29T14:50:01.964Z,67.80
2018-01-29T14:52:28.910Z,67.80
2018-01-29T14:54:55.852Z,67.80
2018-01-29T14:57:22.796Z,68.60
2018-01-29T14:59:49.757Z,67.80
2018-01-29T15:02:16.720Z,67.80
2018-01-29T15:04:44.447Z,67.90
2018-01-29T15:07:11.376Z,67.90
2018-01-29T15:09:38.311Z,67.80
2018-01-29T15:12:05.255Z,67.80
2018-01-29T15:14:32.200Z,67.80
2018-01-29T15:16:59.136Z,67.90
2018-01-29T15:19:26.846Z,67.90
2018-01-29T15:21:53.784Z,67.90
2018-01-29T15:24:20.728Z,67.90
2018-01-29T15:26:47.672Z,67.90
2018-01-29T15:29:14.612Z,67.90
2018-01-29T15:31:41.556Z,67.90
2018-01-29T15:34:08.499Z,67.90
2018-01-29T15:36:35.438Z,67.90
2018-01-29T15:39:02.383Z,67.90
2018-01-29T15:41:29.315Z,67.90
2018-01-29T15:43:56.272Z,67.90
2018-01-29T15:46:23.250Z,67.90
2018-01-29T15:48:50.468Z,67.90
2018-01-29T15:51:19.666Z,67.90
2018-01-29T15:53:46.766Z,67.90
2018-01-29T15:56:24.188Z,67.90
2018-01-29T15:58:51.141Z,67.90
2018-01-29T16:01:18.081Z,67.90
2018-01-29T16:03:45.033Z,67.90
2018-01-29T16:06:11.982Z,67.90
2018-01-29T16:08:39.940Z,67.90
2018-01-29T16:11:06.892Z,67.90
2018-01-29T16:13:35.857Z,67.90
2018-01-29T16:16:02.811Z,67.90
2018-01-29T16:18:29.770Z,68.00
2018-01-29T16:20:56.721Z,67.90
2018-01-29T16:23:23.671Z,67.90
2018-01-29T16:25:50.611Z,67.90
2018-01-29T16:28:17.577Z,68.00
2018-01-29T16:30:47.952Z,67.90
2018-01-29T16:33:14.933Z,67.90
2018-01-29T16:35:41.884Z,67.80
2018-01-29T16:38:08.921Z,68.00
2018-01-29T16:40:35.879Z,68.00
2018-01-29T16:43:02.836Z,67.90
2018-01-29T16:45:31.601Z,68.00
2018-01-29T16:47:58.569Z,68.00
2018-01-29T16:50:32.162Z,68.60
2018-01-29T16:52:59.074Z,67.90
2018-01-29T16:55:26.072Z,67.90
2018-01-29T16:57:53.796Z,68.00
2018-01-29T17:00:20.750Z,68.00
2018-01-29T17:02:48.664Z,68.00
2018-01-29T17:05:17.560Z,67.90
2018-01-29T17:07:45.281Z,68.00
2018-01-29T17:10:12.232Z,67.90
2018-01-29T17:12:39.941Z,68.00
2018-01-29T17:15:06.908Z,67.90
2018-01-29T17:17:37.227Z,67.90
2018-01-29T17:20:04.169Z,68.00
2018-01-29T17:22:31.117Z,68.00
2018-01-29T17:24:58.069Z,67.90
2018-01-29T17:27:25.013Z,68.00
2018-01-29T17:29:51.996Z,67.90
2018-01-29T17:32:19.739Z,68.00
2018-01-29T17:34:46.668Z,67.90
2018-01-29T17:37:20.102Z,68.00
2018-01-29T17:39:52.304Z,67.90
2018-01-29T17:42:19.329Z,68.00
2018-01-29T17:44:47.169Z,68.00
2018-01-29T17:47:14.925Z,68.00
2018-01-29T17:49:41.885Z,67.90
2018-01-29T17:52:09.598Z,68.00
2018-01-29T17:54:36.532Z,67.90
2018-01-29T17:57:03.472Z,68.00
2018-01-29T17:59:30.417Z,68.00
2018-01-29T18:01:57.352Z,68.30
2018-01-29T18:40:10.360Z,52.30
2018-01-29T18:53:03.846Z,57.10
2018-01-29T18:55:32.268Z,56.90
2018-01-29T18:57:59.856Z,56.30
2018-01-29T19:00:27.671Z,57.90
2018-01-29T19:02:56.569Z,59.20
2018-01-29T19:05:24.314Z,60.30
2018-01-29T19:07:52.012Z,61.50
2018-01-29T19:10:19.640Z,62.60
2018-01-29T19:12:47.321Z,63.50
2018-01-29T19:15:14.885Z,64.20
2018-01-29T19:17:42.707Z,64.90
2018-01-29T19:20:11.119Z,65.80
2018-01-29T19:22:38.791Z,65.80
2018-01-29T19:25:06.405Z,66.20
2018-01-29T19:27:33.972Z,66.60
2018-01-29T19:30:02.392Z,67.00
2018-01-29T19:32:30.021Z,66.90
2018-01-29T19:34:58.443Z,67.40
2018-01-29T19:37:26.090Z,67.40
2018-01-29T19:39:53.656Z,67.60
2018-01-29T19:42:21.268Z,67.60
2018-01-29T19:44:49.697Z,67.80
2018-01-29T19:47:17.324Z,67.90
2018-01-29T19:49:45.697Z,68.00
2018-01-29T19:52:14.149Z,68.00
2018-01-29T19:54:42.194Z,68.00
2018-01-29T19:57:09.827Z,68.00
2018-01-29T19:59:38.539Z,68.10
2018-01-29T20:02:06.116Z,68.10
2018-01-29T20:04:33.777Z,68.10
2018-01-29T20:07:02.384Z,68.00
2018-01-29T20:09:30.032Z,68.20
2018-01-29T20:11:57.675Z,68.20
2018-01-29T20:14:25.249Z,68.20
2018-01-29T20:16:53.529Z,68.20
2018-01-29T20:19:21.167Z,68.20
2018-01-29T20:21:48.834Z,68.30
2018-01-29T20:24:17.284Z,68.20
2018-01-29T20:26:45.108Z,68.20
2018-01-29T20:29:12.724Z,68.30
2018-01-29T20:31:41.115Z,68.30
2018-01-29T20:34:08.741Z,68.30
2018-01-29T20:36:36.572Z,68.30
2018-01-29T20:39:04.140Z,68.30
2018-01-29T20:41:32.585Z,68.30
2018-01-29T20:44:00.228Z,68.30
2018-01-29T20:46:28.691Z,68.30
2018-01-29T20:48:56.313Z,68.30
2018-01-29T20:51:24.063Z,68.30
2018-01-29T20:53:51.699Z,68.40
2018-01-29T20:56:20.135Z,68.40
2018-01-29T20:58:47.780Z,68.40
2018-01-29T21:01:15.556Z,68.30
2018-01-29T21:03:43.224Z,68.30
2018-01-29T21:06:10.831Z,68.40
2018-01-29T21:08:39.419Z,68.40
2018-01-29T21:11:07.837Z,68.40
2018-01-29T21:13:35.472Z,68.40
2018-01-29T21:16:03.887Z,68.30
2018-01-29T21:18:32.403Z,68.30
2018-01-29T21:21:00.027Z,68.30
2018-01-29T21:23:27.689Z,68.30
2018-01-29T21:25:55.326Z,68.40
2018-01-29T21:28:22.955Z,68.40
2018-01-29T21:30:50.618Z,68.40
2018-01-29T21:33:18.201Z,68.30
2018-01-29T21:35:47.311Z,68.40
2018-01-29T21:38:15.127Z,68.40
2018-01-29T21:40:42.773Z,68.40
2018-01-29T21:43:10.428Z,68.40
2018-01-29T21:46:14.525Z,68.40
2018-01-29T21:48:42.160Z,68.40
2018-01-29T21:51:10.516Z,68.50
2018-01-29T21:53:38.229Z,68.50
2018-01-29T21:56:05.859Z,68.40
2018-01-29T21:58:33.612Z,68.50
2018-01-29T22:01:01.827Z,68.40
2018-01-29T22:03:29.430Z,68.40
2018-01-29T22:05:57.277Z,68.40
2018-01-29T22:08:24.896Z,69.20
2018-01-29T22:10:53.357Z,69.20
2018-01-29T22:13:20.993Z,68.50
2018-01-29T22:15:48.609Z,68.50
2018-01-29T22:18:17.309Z,68.50
2018-01-29T22:20:44.874Z,68.50
2018-01-29T22:23:12.464Z,68.50
2018-01-29T22:25:40.041Z,68.50
2018-01-29T22:28:07.668Z,68.50
2018-01-29T22:30:35.307Z,68.50
2018-01-29T22:33:03.640Z,68.50
2018-01-29T22:35:31.455Z,68.50
2018-01-29T22:37:59.856Z,68.50
2018-01-29T22:40:27.491Z,68.50
2018-01-29T22:42:55.835Z,68.50
2018-01-29T22:45:23.423Z,68.40
2018-01-29T22:47:50.995Z,68.50
2018-01-29T22:50:19.347Z,68.60
2018-01-29T22:52:46.965Z,68.50
2018-01-29T22:55:14.533Z,68.50
2018-01-29T22:57:42.103Z,68.50
2018-01-29T23:00:09.707Z,68.50
2018-01-29T23:02:37.329Z,68.50
2018-01-29T23:05:04.923Z,68.50
2018-01-29T23:07:32.747Z,68.50
2018-01-29T23:10:00.351Z,69.40
2018-01-29T23:12:27.954Z,68.50
2018-01-29T23:14:55.704Z,68.50
2018-01-29T23:17:24.098Z,68.50
2018-01-29T23:19:51.747Z,68.40
2018-01-29T23:22:19.391Z,68.50
2018-01-29T23:24:46.960Z,68.50
2018-01-29T23:27:15.284Z,69.20
2018-01-29T23:29:42.860Z,68.40
2018-01-29T23:32:10.453Z,68.50
2018-01-29T23:34:38.042Z,68.60
2018-01-29T23:37:05.727Z,68.60
2018-01-29T23:39:33.438Z,68.60
2018-01-29T23:42:01.922Z,68.60
2018-01-29T23:44:29.626Z,68.50
2018-01-29T23:46:57.218Z,68.60
2018-01-29T23:49:24.814Z,68.50
2018-01-29T23:51:53.281Z,68.60
2018-01-29T23:54:20.861Z,68.50
2018-01-29T23:56:49.226Z,68.50
2018-01-29T23:59:16.986Z,68.50
